createdAt,value
2023-03-10T00:00:05.982Z,19.31
2023-03-10T00:02:35.089Z,19.30
2023-03-10T00:05:03.519Z,19.31
2023-03-10T00:07:31.196Z,19.30
2023-03-10T00:09:58.862Z,19.30
2023-03-10T00:12:27.925Z,19.29
2023-03-10T00:14:56.288Z,19.29
2023-03-10T00:17:23.992Z,19.29
2023-03-10T00:19:53.042Z,19.30
2023-03-10T00:22:20.731Z,19.29
2023-03-10T00:24:48.596Z,19.30
2023-03-10T00:27:16.327Z,19.30
2023-03-10T00:29:44.013Z,19.31
2023-03-10T00:32:11.744Z,19.30
2023-03-10T00:34:39.471Z,19.30
2023-03-10T00:37:09.303Z,19.30
2023-03-10T00:39:37.115Z,19.30
2023-03-10T00:42:05.010Z,19.33
2023-03-10T00:44:32.816Z,19.35
2023-03-10T00:47:00.474Z,19.36
2023-03-10T00:49:28.155Z,19.35
2023-03-10T00:51:55.863Z,19.36
2023-03-10T00:54:24.910Z,19.35
2023-03-10T00:56:52.572Z,19.35
2023-03-10T00:59:20.290Z,19.33
2023-03-10T01:01:48.058Z,19.33
2023-03-10T01:04:18.807Z,19.32
2023-03-10T01:06:47.663Z,19.32
2023-03-10T01:09:15.587Z,19.32
2023-03-10T01:11:44.629Z,19.31
2023-03-10T01:14:13.555Z,19.30
2023-03-10T01:16:41.215Z,19.30
2023-03-10T01:19:08.946Z,19.29
2023-03-10T01:21:37.705Z,19.29
2023-03-10T01:24:06.275Z,19.29
2023-03-10T01:26:33.959Z,19.29
2023-03-10T01:29:02.985Z,19.28
2023-03-10T01:31:30.779Z,19.28
2023-03-10T01:33:58.604Z,19.27
2023-03-10T01:36:27.145Z,19.26
2023-03-10T01:38:54.888Z,19.24
2023-03-10T01:41:22.675Z,19.27
2023-03-10T01:43:50.742Z,19.26
2023-03-10T01:46:37.042Z,19.27
2023-03-10T01:49:06.815Z,19.27
2023-03-10T01:51:35.804Z,19.23
2023-03-10T01:54:03.959Z,19.22
2023-03-10T01:56:31.648Z,19.21
2023-03-10T01:58:59.344Z,19.19
2023-03-10T02:01:28.406Z,19.20
2023-03-10T02:03:59.301Z,19.19
2023-03-10T02:06:27.012Z,19.19
2023-03-10T02:08:57.541Z,19.18
2023-03-10T02:11:25.451Z,19.18
2023-03-10T02:13:53.197Z,19.17
2023-03-10T02:16:20.913Z,19.17
2023-03-10T02:18:49.989Z,19.16
2023-03-10T02:21:21.787Z,19.17
2023-03-10T02:24:01.079Z,19.16
2023-03-10T02:26:34.761Z,19.16
2023-03-10T02:29:04.907Z,19.15
2023-03-10T02:31:32.633Z,19.15
2023-03-10T02:34:00.311Z,19.13
2023-03-10T02:36:28.025Z,19.13
2023-03-10T02:38:55.769Z,19.12
2023-03-10T02:41:25.983Z,19.11
2023-03-10T02:43:53.703Z,19.11
2023-03-10T02:46:22.837Z,19.12
2023-03-10T02:48:50.783Z,19.14
2023-03-10T02:51:20.700Z,19.12
2023-03-10T02:53:48.371Z,19.11
2023-03-10T02:56:16.048Z,19.10
2023-03-10T02:58:43.904Z,19.09
2023-03-10T03:01:11.577Z,19.10
2023-03-10T03:03:40.687Z,19.10
2023-03-10T03:06:08.516Z,19.10
2023-03-10T03:08:36.196Z,19.12
2023-03-10T03:11:03.904Z,19.12
2023-03-10T03:13:31.574Z,19.12
2023-03-10T03:15:59.287Z,19.12
2023-03-10T03:18:26.992Z,19.13
2023-03-10T03:20:56.004Z,19.12
2023-03-10T03:23:23.728Z,19.13
2023-03-10T03:25:51.453Z,19.12
2023-03-10T03:28:19.202Z,19.12
2023-03-10T03:30:47.154Z,19.12
2023-03-10T03:33:14.812Z,19.11
2023-03-10T03:35:43.602Z,19.12
2023-03-10T03:38:12.705Z,19.14
2023-03-10T03:40:40.748Z,19.12
2023-03-10T03:43:08.398Z,19.12
2023-03-10T03:45:36.044Z,19.11
2023-03-10T03:48:03.720Z,19.11
2023-03-10T03:50:31.474Z,19.11
2023-03-10T03:52:59.152Z,19.11
2023-03-10T03:55:28.862Z,19.10
2023-03-10T03:57:56.592Z,19.10
2023-03-10T04:00:25.157Z,19.09
2023-03-10T04:02:53.093Z,19.08
2023-03-10T04:05:20.823Z,19.09
2023-03-10T04:07:49.880Z,19.10
2023-03-10T04:10:19.106Z,19.08
2023-03-10T04:12:48.159Z,19.06
2023-03-10T04:15:16.145Z,19.06
2023-03-10T04:17:43.822Z,19.07
2023-03-10T04:20:14.176Z,19.07
2023-03-10T04:22:41.866Z,19.06
2023-03-10T04:25:10.022Z,19.06
2023-03-10T04:27:37.704Z,19.05
2023-03-10T04:30:08.266Z,19.05
2023-03-10T04:32:35.995Z,19.04
2023-03-10T04:35:03.772Z,19.04
2023-03-10T04:37:31.460Z,19.04
2023-03-10T04:39:59.159Z,19.03
2023-03-10T04:42:28.113Z,19.03
2023-03-10T04:44:55.795Z,19.03
2023-03-10T04:47:24.804Z,19.03
2023-03-10T04:49:52.540Z,19.03
2023-03-10T04:52:20.238Z,19.02
2023-03-10T04:54:48.339Z,19.04
2023-03-10T04:57:16.221Z,19.04
2023-03-10T04:59:44.000Z,19.03
2023-03-10T05:02:11.703Z,19.02
2023-03-10T05:04:40.823Z,19.01
2023-03-10T05:07:08.483Z,19.01
2023-03-10T05:09:37.238Z,19.01
2023-03-10T05:12:05.360Z,19.03
2023-03-10T05:14:33.083Z,19.01
2023-03-10T05:17:00.832Z,18.99
2023-03-10T05:19:28.714Z,18.99
2023-03-10T05:21:58.174Z,18.99
2023-03-10T05:24:25.857Z,18.98
2023-03-10T05:26:53.579Z,19.00
2023-03-10T05:29:21.871Z,19.01
2023-03-10T05:31:49.630Z,19.00
2023-03-10T05:34:17.694Z,19.00
2023-03-10T05:36:45.348Z,19.02
2023-03-10T05:39:14.617Z,19.02
2023-03-10T05:41:42.293Z,19.03
2023-03-10T05:44:10.579Z,19.04
2023-03-10T05:46:38.507Z,19.06
2023-03-10T05:49:06.220Z,19.06
2023-03-10T05:51:33.914Z,19.06
2023-03-10T05:54:01.557Z,19.07
2023-03-10T05:56:30.723Z,19.06
2023-03-10T05:58:58.420Z,19.06
2023-03-10T06:01:26.090Z,19.06
2023-03-10T06:03:53.777Z,19.05
2023-03-10T06:06:21.517Z,19.07
2023-03-10T06:08:49.260Z,19.05
2023-03-10T06:11:16.948Z,19.05
2023-03-10T06:13:45.955Z,19.06
2023-03-10T06:16:13.657Z,19.08
2023-03-10T06:18:41.377Z,19.08
2023-03-10T06:21:09.680Z,19.08
2023-03-10T06:23:37.603Z,19.08
2023-03-10T06:26:06.976Z,19.07
2023-03-10T06:28:36.547Z,19.05
2023-03-10T06:31:06.677Z,19.05
2023-03-10T06:33:34.468Z,19.05
2023-03-10T06:36:02.294Z,19.04
2023-03-10T06:38:30.572Z,19.04
2023-03-10T06:40:58.445Z,19.01
2023-03-10T06:43:26.236Z,19.01
2023-03-10T06:45:54.043Z,18.99
2023-03-10T06:48:23.119Z,19.00
2023-03-10T06:50:50.893Z,19.01
2023-03-10T06:53:21.254Z,19.00
2023-03-10T06:55:58.104Z,19.01
2023-03-10T06:58:25.878Z,19.01
2023-03-10T07:00:53.665Z,19.02
2023-03-10T07:03:22.727Z,19.03
2023-03-10T07:05:50.433Z,19.05
2023-03-10T07:08:18.176Z,19.09
2023-03-10T07:10:45.853Z,19.12
2023-03-10T07:13:15.574Z,19.13
2023-03-10T07:15:43.325Z,19.15
2023-03-10T07:18:11.030Z,19.17
2023-03-10T07:20:41.575Z,19.19
2023-03-10T07:23:09.276Z,19.20
2023-03-10T07:25:37.520Z,19.20
2023-03-10T07:28:05.522Z,19.21
2023-03-10T07:30:33.319Z,19.22
2023-03-10T07:33:00.983Z,19.26
2023-03-10T07:35:28.798Z,19.30
2023-03-10T07:37:58.977Z,19.30
2023-03-10T07:40:26.679Z,19.28
2023-03-10T07:42:54.777Z,19.27
2023-03-10T07:45:22.900Z,19.28
2023-03-10T07:47:51.207Z,19.28
2023-03-10T07:50:19.124Z,19.27
2023-03-10T07:52:46.822Z,19.27
2023-03-10T07:55:15.855Z,19.26
2023-03-10T07:57:43.572Z,19.23
2023-03-10T08:00:12.202Z,19.22
2023-03-10T08:02:39.962Z,19.21
2023-03-10T08:05:08.726Z,19.19
2023-03-10T08:07:36.528Z,19.20
2023-03-10T08:10:04.420Z,19.20
2023-03-10T08:12:34.067Z,19.18
2023-03-10T08:15:01.744Z,19.18
2023-03-10T08:17:30.825Z,19.16
2023-03-10T08:19:58.768Z,19.17
2023-03-10T08:22:26.594Z,19.17
2023-03-10T08:24:54.345Z,19.17
2023-03-10T08:27:22.140Z,19.16
2023-03-10T08:29:51.176Z,19.16
2023-03-10T08:32:19.778Z,19.15
2023-03-10T08:34:47.642Z,19.16
2023-03-10T08:37:15.335Z,19.16
2023-03-10T08:39:43.037Z,19.15
2023-03-10T08:42:11.575Z,19.16
2023-03-10T08:44:39.401Z,19.15
2023-03-10T08:47:08.654Z,19.15
2023-03-10T08:49:36.386Z,19.13
2023-03-10T08:52:04.276Z,19.13
2023-03-10T08:54:32.690Z,19.12
2023-03-10T08:57:00.733Z,19.12
2023-03-10T08:59:28.579Z,19.11
2023-03-10T09:01:56.274Z,19.11
2023-03-10T09:04:25.334Z,19.10
2023-03-10T09:06:53.088Z,19.10
2023-03-10T09:09:20.780Z,19.10
2023-03-10T09:11:48.439Z,19.10
2023-03-10T09:14:17.385Z,19.10
2023-03-10T09:16:45.266Z,19.09
2023-03-10T09:19:13.016Z,19.10
2023-03-10T09:21:42.638Z,19.11
2023-03-10T09:24:10.333Z,19.10
2023-03-10T09:26:38.019Z,19.10
2023-03-10T09:29:05.693Z,19.11
2023-03-10T09:31:34.872Z,19.09
2023-03-10T09:34:02.692Z,19.10
2023-03-10T09:36:30.611Z,19.10
2023-03-10T09:38:59.827Z,19.12
2023-03-10T09:41:38.840Z,19.11
2023-03-10T09:44:13.842Z,19.12
2023-03-10T09:46:43.631Z,19.11
2023-03-10T09:49:13.306Z,19.11
2023-03-10T09:51:41.863Z,19.10
2023-03-10T09:54:31.012Z,19.11
2023-03-10T09:56:59.640Z,19.11
2023-03-10T09:59:31.856Z,19.11
2023-03-10T10:02:00.171Z,19.10
2023-03-10T10:04:29.715Z,19.11
2023-03-10T10:06:57.440Z,19.12
2023-03-10T10:09:28.994Z,19.12
2023-03-10T10:11:57.015Z,19.12
2023-03-10T10:14:29.845Z,19.11
2023-03-10T10:17:02.448Z,19.11
2023-03-10T10:19:30.312Z,19.13
2023-03-10T10:21:59.948Z,19.14
2023-03-10T10:24:29.162Z,19.13
2023-03-10T10:26:56.876Z,19.13
2023-03-10T10:29:25.397Z,19.13
2023-03-10T10:32:14.155Z,19.15
2023-03-10T10:34:42.697Z,19.14
2023-03-10T10:37:25.320Z,19.15
2023-03-10T10:39:54.715Z,19.15
2023-03-10T10:42:24.233Z,19.14
2023-03-10T10:44:53.456Z,19.14
2023-03-10T10:47:29.653Z,19.14
2023-03-10T10:50:09.535Z,19.14
2023-03-10T10:52:37.203Z,19.15
2023-03-10T10:55:07.042Z,19.15
2023-03-10T10:57:35.914Z,19.15
2023-03-10T11:00:19.420Z,19.17
2023-03-10T11:02:47.184Z,19.18
2023-03-10T11:05:16.813Z,19.20
2023-03-10T11:07:45.014Z,19.19
2023-03-10T11:10:15.434Z,19.18
2023-03-10T11:12:53.610Z,19.18
2023-03-10T11:15:23.892Z,19.18
2023-03-10T11:17:55.007Z,19.19
2023-03-10T11:20:25.857Z,19.18
2023-03-10T11:22:56.601Z,19.20
2023-03-10T11:25:31.478Z,19.21
2023-03-10T11:28:05.776Z,19.21
2023-03-10T11:30:34.091Z,19.21
2023-03-10T11:33:07.941Z,19.22
2023-03-10T11:35:38.862Z,19.20
2023-03-10T11:38:12.544Z,19.20
2023-03-10T11:40:44.755Z,19.21
2023-03-10T11:43:15.579Z,19.21
2023-03-10T11:45:45.584Z,19.23
2023-03-10T11:48:26.526Z,19.24
2023-03-10T11:50:55.165Z,19.23
2023-03-10T11:53:29.114Z,19.24
2023-03-10T11:55:58.508Z,19.23
2023-03-10T11:58:27.932Z,19.21
2023-03-10T12:00:55.814Z,19.20
2023-03-10T12:03:31.222Z,19.19
2023-03-10T12:05:59.683Z,19.18
2023-03-10T12:08:30.662Z,19.18
2023-03-10T12:11:00.225Z,19.17
2023-03-10T12:13:28.738Z,19.17
2023-03-10T12:15:59.577Z,19.17
2023-03-10T12:18:27.391Z,19.16
2023-03-10T12:21:20.602Z,19.17
2023-03-10T12:23:48.558Z,19.18
2023-03-10T12:26:23.779Z,19.19
2023-03-10T12:28:51.795Z,19.18
2023-03-10T12:31:46.554Z,19.19
2023-03-10T12:34:15.132Z,19.19
2023-03-10T12:36:42.803Z,19.19
2023-03-10T12:39:31.760Z,19.21
2023-03-10T12:42:00.946Z,19.21
2023-03-10T12:44:51.311Z,19.24
2023-03-10T12:47:26.138Z,19.26
2023-03-10T12:49:56.144Z,19.27
2023-03-10T12:52:28.411Z,19.27
2023-03-10T12:55:08.707Z,19.28
2023-03-10T12:57:42.428Z,19.30
2023-03-10T13:00:16.234Z,19.30
2023-03-10T13:02:47.463Z,19.28
2023-03-10T13:05:21.084Z,19.27
2023-03-10T13:07:49.759Z,19.27
2023-03-10T13:10:18.252Z,19.28
2023-03-10T13:12:48.624Z,19.28
2023-03-10T13:15:24.414Z,19.26
2023-03-10T13:17:55.089Z,19.26
2023-03-10T13:20:23.116Z,19.26
2023-03-10T13:22:54.788Z,19.31
2023-03-10T13:25:22.816Z,19.33
2023-03-10T13:27:52.554Z,19.32
2023-03-10T13:30:21.126Z,19.31
2023-03-10T13:32:58.584Z,19.29
2023-03-10T13:35:30.631Z,19.27
2023-03-10T13:38:06.148Z,19.28
2023-03-10T13:40:33.849Z,19.29
2023-03-10T13:43:02.887Z,19.32
2023-03-10T13:45:34.295Z,19.33
2023-03-10T13:48:02.819Z,19.33
2023-03-10T13:50:30.696Z,19.34
2023-03-10T13:52:59.685Z,19.35
2023-03-10T13:55:27.517Z,19.34
2023-03-10T13:57:55.302Z,19.36
2023-03-10T14:00:24.877Z,19.37
2023-03-10T14:02:53.037Z,19.37
2023-03-10T14:05:41.580Z,19.37
2023-03-10T14:08:18.596Z,19.37
2023-03-10T14:10:46.251Z,19.36
2023-03-10T14:13:41.195Z,19.36
2023-03-10T14:16:10.423Z,19.34
2023-03-10T14:18:38.611Z,19.33
2023-03-10T14:21:34.523Z,19.32
2023-03-10T14:24:06.609Z,19.32
2023-03-10T14:26:34.468Z,19.31
2023-03-10T14:29:03.283Z,19.30
2023-03-10T14:31:32.298Z,19.29
2023-03-10T14:33:59.938Z,19.28
2023-03-10T14:36:28.127Z,19.28
2023-03-10T14:38:55.870Z,19.29
2023-03-10T14:41:24.695Z,19.29
2023-03-10T14:43:52.586Z,19.29
2023-03-10T14:46:20.476Z,19.29
2023-03-10T14:48:49.729Z,19.28
2023-03-10T14:51:32.521Z,19.28
2023-03-10T14:54:02.269Z,19.26
2023-03-10T14:56:30.001Z,19.25
2023-03-10T14:59:01.944Z,19.26
2023-03-10T15:01:29.834Z,19.24
2023-03-10T15:03:58.883Z,19.24
2023-03-10T15:06:26.574Z,19.23
2023-03-10T15:08:54.317Z,19.22
2023-03-10T15:11:36.132Z,19.21
2023-03-10T15:14:05.207Z,19.19
2023-03-10T15:16:32.900Z,19.17
2023-03-10T15:19:02.179Z,19.17
2023-03-10T15:21:29.859Z,19.17
2023-03-10T15:23:57.556Z,19.15
2023-03-10T15:26:25.234Z,19.15
2023-03-10T15:28:53.198Z,19.14
2023-03-10T15:31:21.151Z,19.14
2023-03-10T15:33:49.017Z,19.12
2023-03-10T15:36:18.738Z,19.11
2023-03-10T15:38:46.506Z,19.11
2023-03-10T15:41:14.235Z,19.11
2023-03-10T15:43:41.913Z,19.10
2023-03-10T15:46:09.692Z,19.09
2023-03-10T15:48:37.431Z,19.10
2023-03-10T15:51:09.848Z,19.09
2023-03-10T15:53:39.053Z,19.08
2023-03-10T15:56:07.480Z,19.07
2023-03-10T15:58:35.215Z,19.06
2023-03-10T16:01:07.592Z,19.05
2023-03-10T16:03:36.034Z,19.05
2023-03-10T16:06:03.783Z,19.04
2023-03-10T16:08:37.088Z,19.05
2023-03-10T16:11:07.243Z,19.03
2023-03-10T16:13:34.921Z,19.03
2023-03-10T16:16:06.191Z,19.02
2023-03-10T16:18:34.225Z,19.01
2023-03-10T16:21:02.337Z,19.00
2023-03-10T16:23:31.724Z,18.98
2023-03-10T16:26:08.219Z,18.98
2023-03-10T16:28:35.925Z,18.98
2023-03-10T16:31:04.076Z,18.97
2023-03-10T16:33:31.894Z,18.97
2023-03-10T16:36:00.290Z,18.98
2023-03-10T16:38:28.087Z,18.97
2023-03-10T16:40:57.450Z,18.96
2023-03-10T16:43:28.678Z,18.96
2023-03-10T16:46:05.925Z,18.96
2023-03-10T16:48:33.603Z,18.95
2023-03-10T16:51:01.303Z,18.95
2023-03-10T16:53:28.994Z,18.94
2023-03-10T16:56:04.397Z,18.92
2023-03-10T16:58:34.007Z,18.93
2023-03-10T17:01:01.982Z,18.92
2023-03-10T17:03:29.702Z,18.91
2023-03-10T17:05:57.456Z,18.91
2023-03-10T17:08:25.130Z,18.89
2023-03-10T17:10:52.785Z,18.88
2023-03-10T17:13:20.479Z,18.88
2023-03-10T17:15:49.551Z,18.86
2023-03-10T17:18:19.336Z,18.87
2023-03-10T17:20:47.096Z,18.86
2023-03-10T17:23:14.748Z,18.85
2023-03-10T17:25:43.230Z,18.85
2023-03-10T17:28:10.887Z,18.84
2023-03-10T17:30:39.883Z,18.81
2023-03-10T17:33:09.271Z,18.82
2023-03-10T17:35:38.404Z,18.81
2023-03-10T17:38:06.088Z,18.82
2023-03-10T17:40:34.714Z,18.80
2023-03-10T17:43:13.259Z,18.80
2023-03-10T17:45:57.006Z,18.79
2023-03-10T17:48:26.230Z,18.78
2023-03-10T17:50:53.904Z,18.78
2023-03-10T17:53:21.590Z,18.79
2023-03-10T17:55:49.295Z,18.78
2023-03-10T17:58:17.011Z,18.76
2023-03-10T18:00:44.671Z,18.77
2023-03-10T18:03:12.391Z,18.77
2023-03-10T18:05:42.318Z,18.77
2023-03-10T18:08:10.127Z,18.75
2023-03-10T18:10:38.185Z,18.74
2023-03-10T18:13:06.779Z,18.75
2023-03-10T18:15:35.125Z,18.73
2023-03-10T18:18:02.913Z,18.72
2023-03-10T18:20:30.603Z,18.73
2023-03-10T18:23:00.975Z,18.73
2023-03-10T18:25:28.697Z,18.71
2023-03-10T18:27:56.534Z,18.71
2023-03-10T18:30:25.863Z,18.69
2023-03-10T18:32:53.629Z,18.69
2023-03-10T18:35:21.380Z,18.69
2023-03-10T18:37:49.091Z,18.68
2023-03-10T18:40:18.365Z,18.68
2023-03-10T18:42:46.153Z,18.67
2023-03-10T18:45:13.879Z,18.67
2023-03-10T18:47:42.556Z,18.66
2023-03-10T18:50:12.040Z,18.66
2023-03-10T18:52:39.799Z,18.64
2023-03-10T18:55:07.870Z,18.64
2023-03-10T18:57:36.914Z,18.64
2023-03-10T19:00:07.573Z,18.62
2023-03-10T19:02:35.477Z,18.60
2023-03-10T19:05:05.131Z,18.61
2023-03-10T19:07:33.666Z,18.60
2023-03-10T19:10:01.370Z,18.59
2023-03-10T19:12:29.083Z,18.57
2023-03-10T19:14:59.300Z,18.58
2023-03-10T19:17:27.411Z,18.57
2023-03-10T19:19:55.185Z,18.55
2023-03-10T19:22:22.953Z,18.52
2023-03-10T19:24:50.638Z,18.50
2023-03-10T19:27:18.484Z,18.47
2023-03-10T19:29:46.176Z,18.45
2023-03-10T19:32:15.514Z,18.44
2023-03-10T19:34:43.212Z,18.44
2023-03-10T19:37:10.916Z,18.44
2023-03-10T19:39:38.624Z,18.44
2023-03-10T19:42:06.426Z,18.44
2023-03-10T19:44:34.135Z,18.44
2023-03-10T19:47:02.013Z,18.43
2023-03-10T19:49:34.109Z,18.44
2023-03-10T19:52:01.865Z,18.44
2023-03-10T19:54:29.599Z,18.44
2023-03-10T19:56:57.283Z,18.45
2023-03-10T19:59:24.989Z,18.46
2023-03-10T20:01:52.707Z,18.47
2023-03-10T20:04:20.404Z,18.47
2023-03-10T20:06:49.511Z,18.47
2023-03-10T20:09:18.914Z,18.49
2023-03-10T20:11:46.646Z,18.48
2023-03-10T20:14:14.346Z,18.49
2023-03-10T20:16:42.050Z,18.50
2023-03-10T20:19:09.796Z,18.50
2023-03-10T20:21:37.472Z,18.49
2023-03-10T20:24:07.211Z,18.51
2023-03-10T20:26:34.905Z,18.50
2023-03-10T20:29:02.588Z,18.49
2023-03-10T20:31:33.860Z,18.47
2023-03-10T20:34:01.773Z,18.47
2023-03-10T20:36:29.498Z,18.48
2023-03-10T20:38:57.207Z,18.48
2023-03-10T20:41:26.267Z,18.52
2023-03-10T20:43:55.247Z,18.50
2023-03-10T20:46:24.704Z,18.51
2023-03-10T20:48:52.433Z,18.51
2023-03-10T20:51:22.511Z,18.52
2023-03-10T20:53:51.740Z,18.49
2023-03-10T20:56:19.466Z,18.48
2023-03-10T20:58:48.602Z,18.48
2023-03-10T21:01:16.684Z,18.48
2023-03-10T21:03:44.498Z,18.48
2023-03-10T21:06:12.250Z,18.49
2023-03-10T21:08:39.975Z,18.48
2023-03-10T21:11:07.661Z,18.47
2023-03-10T21:13:35.390Z,18.49
2023-03-10T21:16:04.652Z,18.51
2023-03-10T21:18:32.363Z,18.50
2023-03-10T21:21:00.044Z,18.49
2023-03-10T21:23:27.789Z,18.48
2023-03-10T21:25:55.486Z,18.46
2023-03-10T21:28:23.165Z,18.46
2023-03-10T21:30:50.858Z,18.45
2023-03-10T21:33:22.936Z,18.45
2023-03-10T21:35:50.675Z,18.45
2023-03-10T21:38:18.408Z,18.44
2023-03-10T21:40:46.146Z,18.42
2023-03-10T21:43:13.864Z,18.40
2023-03-10T21:45:41.626Z,18.40
2023-03-10T21:48:11.546Z,18.40
2023-03-10T21:50:40.603Z,18.39
2023-03-10T21:53:08.365Z,18.38
2023-03-10T21:55:38.159Z,18.38
2023-03-10T21:58:06.494Z,18.37
2023-03-10T22:00:36.043Z,18.38
2023-03-10T22:03:03.990Z,18.36
2023-03-10T22:05:31.762Z,18.34
2023-03-10T22:08:01.026Z,18.33
2023-03-10T22:10:28.770Z,18.33
2023-03-10T22:12:56.467Z,18.33
2023-03-10T22:15:25.285Z,18.34
2023-03-10T22:17:53.628Z,18.34
2023-03-10T22:20:22.801Z,18.33
2023-03-10T22:22:50.572Z,18.32
2023-03-10T22:25:19.796Z,18.32
2023-03-10T22:27:49.844Z,18.32
2023-03-10T22:30:17.732Z,18.32
2023-03-10T22:32:45.520Z,18.30
2023-03-10T22:35:13.235Z,18.32
2023-03-10T22:37:40.988Z,18.31
2023-03-10T22:40:10.251Z,18.33
2023-03-10T22:42:39.700Z,18.32
2023-03-10T22:45:08.501Z,18.34
2023-03-10T22:47:36.205Z,18.33
2023-03-10T22:50:04.344Z,18.33
2023-03-10T22:52:32.105Z,18.33
2023-03-10T22:55:00.212Z,18.32
2023-03-10T22:57:27.890Z,18.31
2023-03-10T22:59:56.939Z,18.31
2023-03-10T23:02:24.592Z,18.31
2023-03-10T23:04:52.263Z,18.27
2023-03-10T23:07:19.931Z,18.28
2023-03-10T23:09:47.594Z,18.29
2023-03-10T23:12:15.267Z,18.30
2023-03-10T23:14:42.932Z,18.29
2023-03-10T23:17:11.950Z,18.28
2023-03-10T23:19:39.603Z,18.28
2023-03-10T23:22:07.347Z,18.29
2023-03-10T23:24:35.166Z,18.27
2023-03-10T23:27:02.829Z,18.27
2023-03-10T23:29:30.481Z,18.25
2023-03-10T23:31:58.176Z,18.26
2023-03-10T23:34:27.188Z,18.23
2023-03-10T23:36:57.196Z,18.26
2023-03-10T23:39:24.893Z,18.24
2023-03-10T23:41:52.569Z,18.24
2023-03-10T23:44:20.900Z,18.22
2023-03-10T23:46:51.716Z,18.23
2023-03-10T23:49:19.429Z,18.23
2023-03-10T23:51:48.738Z,18.23
2023-03-10T23:54:20.538Z,18.24
2023-03-10T23:56:48.276Z,18.23
2023-03-10T23:59:15.953Z,18.21
